메인 페이지
METAR-TAF:

METAR-TAF

공항 :

Coningsby, 잉글랜드

위도: 53-05N, 경도: 000-10W, 고도: 7m

현재 날씨관측

예보는 1 시간 28분 전, 01:50시(UTC)에 발표되었습니다.
서북서7kt
온도 11°C
습도 94%
기압 1014 hPa
시정 10km 이상
고도 2500ft 상공 구름 많음
고도 7400ft 상공 흐림
약한비, 이슬비

METAR: EGXC 130150Z 30007KT 9999 -RADZ BKN025 OVC074 11/10 Q1014 RMK BLU

시각: 04:18 (03:18 UTC)

예보

예보는 1 시간 17분 전, 02:01시(UTC)에 발표되었습니다.
예보 대상 시간: 13일 03시부터 13일 21시까지 (UTC)
북서8kt
시정 10km 이상
고도 2000ft 상공 구름 많음
확률 40% :
일시적
13일 03시부터 13일 09시까지 (UTC)
시정: 6000m
고도 1200ft 상공 구름 많음
약한비, 이슬비
확률 30% :
일시적
13일 03시부터 13일 08시까지 (UTC)
시정: 4000m
고도 600ft 상공 구름 보통
비, 이슬비
전환 중
13일 09시부터 13일 12시까지 (UTC)
고도 2500ft 상공 구름 많음
확률 30% :
일시적
13일 09시부터 13일 12시까지 (UTC)
고도 1200ft 상공 구름 보통
일시적
13일 12시부터 13일 21시까지 (UTC)
고도 2000ft 상공 구름 많음
확률 40% :
일시적
13일 12시부터 13일 18시까지 (UTC)
시정: 6000m
소나기
확률 30% :
일시적
13일 15시부터 13일 18시까지 (UTC)
고도 1000ft 상공 구름 많음
확률 30% :
일시적
13일 18시부터 13일 21시까지 (UTC)
시정: 6000m
고도 400ft 상공 구름 많음
박무,

TAF: EGXC 130201Z 1303/1321 32008KT 9999 BKN020 PROB40 TEMPO 1303/1309 6000 -RADZ BKN012 PROB30 TEMPO 1303/1308 4000 RADZ SCT006 BECMG 1309/1312 BKN025 PROB30 TEMPO 1309/1312 SCT012 TEMPO 1312/1321 BKN020 PROB40 TEMPO 1312/1318 6000 SHRA PROB30 TEMPO 1315/1318 BKN010 PROB30 TEMPO 1318/1321 6000 BR BKN004

4,000개 이상의 공항 관측 자료 및 예보 (METAR 및 TAF 보고).

지도상에서 검색 가능한 기상관측소가 노란 점과 빨간 점으로 표시되어 있습니다.

기상관측소 명을 보려면 표시 위로 마우스를 이동하세요.

날씨 관측과 예보를 보려면 클릭하세요.

지도 변경 : 확대하려면 엑스 표시가 있는 녹색 버튼, 축소하려면 빼기 표시가 있는 녹색 버튼, 다음 페이지의 지도를 보려면 녹색 화살표를 클릭하세요.


METAR-TAF: